createdAt,value
2019-03-05T00:02:09.543Z,97727.30
2019-03-05T00:04:39.924Z,97724.71
2019-03-05T00:07:10.360Z,97717.28
2019-03-05T00:09:40.771Z,97726.12
2019-03-05T00:12:11.250Z,97729.95
2019-03-05T00:14:41.853Z,97733.12
2019-03-05T00:17:12.349Z,97728.89
2019-03-05T00:19:42.770Z,97735.02
2019-03-05T00:22:13.029Z,97727.14
2019-03-05T00:25:08.737Z,97731.98
2019-03-05T00:27:44.178Z,97738.55
2019-03-05T00:30:33.947Z,97732.16
2019-03-05T00:33:48.408Z,97730.73
2019-03-05T00:36:43.467Z,97737.14
2019-03-05T00:39:46.599Z,97743.58
2019-03-05T00:43:10.115Z,97746.95
2019-03-05T00:46:30.093Z,97747.59
2019-03-05T00:49:27.564Z,97764.90
2019-03-05T00:52:23.522Z,97761.14
2019-03-05T00:55:36.969Z,97774.20
2019-03-05T00:58:21.743Z,97768.58
2019-03-05T01:01:20.988Z,97776.44
2019-03-05T01:04:39.749Z,97776.52
2019-03-05T01:07:10.337Z,97773.16
2019-03-05T01:09:40.848Z,97777.30
2019-03-05T01:12:12.877Z,97785.89
2019-03-05T01:14:43.808Z,97798.55
2019-03-05T01:17:14.266Z,97806.08
2019-03-05T01:19:44.769Z,97803.53
2019-03-05T01:22:15.303Z,97809.83
2019-03-05T01:24:46.067Z,97806.80
2019-03-05T01:27:16.658Z,97817.62
2019-03-05T01:29:47.093Z,97823.23
2019-03-05T01:32:36.437Z,97831.04
2019-03-05T01:35:27.073Z,97830.27
2019-03-05T01:37:57.839Z,97828.48
2019-03-05T01:40:32.941Z,97830.96
2019-03-05T01:43:03.673Z,97835.31
2019-03-05T01:45:34.299Z,97834.26
2019-03-05T01:48:05.035Z,97832.17
2019-03-05T01:50:35.577Z,97838.11
2019-03-05T01:53:06.165Z,97840.36
2019-03-05T01:55:36.592Z,97840.36
2019-03-05T01:58:06.927Z,97850.27
2019-03-05T02:00:39.012Z,97848.67
2019-03-05T02:03:09.537Z,97850.92
2019-03-05T02:05:40.058Z,97852.36
2019-03-05T02:08:10.907Z,97859.39
2019-03-05T02:10:42.361Z,97863.73
2019-03-05T02:13:12.747Z,97866.61
2019-03-05T02:15:43.146Z,97871.66
2019-03-05T02:18:20.339Z,97869.79
2019-03-05T02:20:51.048Z,97872.35
2019-03-05T02:24:02.617Z,97876.05
2019-03-05T02:27:19.420Z,97869.17
2019-03-05T02:30:23.456Z,97876.70
2019-03-05T02:33:31.021Z,97876.84
2019-03-05T02:36:22.947Z,97877.94
2019-03-05T02:39:27.213Z,97876.49
2019-03-05T02:42:38.494Z,97871.53
2019-03-05T02:45:41.207Z,97866.95
2019-03-05T02:48:55.233Z,97872.41
2019-03-05T02:52:02.248Z,97871.44
2019-03-05T02:55:17.557Z,97855.34
2019-03-05T02:57:45.723Z,97877.86
2019-03-05T03:00:21.565Z,97878.36
2019-03-05T03:02:57.853Z,97878.24
2019-03-05T03:05:42.071Z,97883.48
2019-03-05T03:08:12.640Z,97886.27
2019-03-05T03:10:43.379Z,97886.89
2019-03-05T03:13:13.899Z,97882.08
2019-03-05T03:15:44.506Z,97879.19
2019-03-05T03:18:15.130Z,97877.09
2019-03-05T03:20:45.610Z,97882.38
2019-03-05T03:23:16.120Z,97877.72
2019-03-05T03:25:46.537Z,97882.06
2019-03-05T03:28:16.907Z,97888.86
2019-03-05T03:30:47.513Z,97882.53
2019-03-05T03:33:17.826Z,97887.55
2019-03-05T03:35:48.213Z,97888.19
2019-03-05T03:38:18.770Z,97894.87
2019-03-05T03:40:49.233Z,97889.82
2019-03-05T03:43:19.774Z,97901.35
2019-03-05T03:45:50.217Z,97905.36
2019-03-05T03:48:20.797Z,97907.14
2019-03-05T03:50:51.249Z,97904.31
2019-03-05T03:53:21.619Z,97902.72
2019-03-05T03:55:52.113Z,97911.69
2019-03-05T03:58:22.478Z,97913.25
2019-03-05T04:00:53.036Z,97909.33
2019-03-05T04:03:23.679Z,97902.19
2019-03-05T04:05:54.552Z,97901.95
2019-03-05T04:08:24.909Z,97900.75
2019-03-05T04:10:55.399Z,97903.47
2019-03-05T04:13:25.923Z,97908.43
2019-03-05T04:15:56.498Z,97920.05
2019-03-05T04:18:26.948Z,97917.86
2019-03-05T04:20:57.460Z,97902.80
2019-03-05T04:23:28.003Z,97910.09
2019-03-05T04:25:58.553Z,97908.58
2019-03-05T04:28:29.023Z,97898.02
2019-03-05T04:30:59.472Z,97899.46
2019-03-05T04:33:29.903Z,97894.56
2019-03-05T04:36:01.143Z,97896.63
2019-03-05T04:38:31.483Z,97890.14
2019-03-05T04:41:01.893Z,97889.83
2019-03-05T04:43:32.242Z,97893.83
2019-03-05T04:46:08.049Z,97893.16
2019-03-05T04:48:38.916Z,97885.62
2019-03-05T04:51:21.503Z,97889.39
2019-03-05T04:53:52.333Z,97889.61
2019-03-05T04:56:22.892Z,97890.23
2019-03-05T04:58:53.219Z,97883.21
2019-03-05T05:01:23.738Z,97892.09
2019-03-05T05:03:54.054Z,97898.58
2019-03-05T05:06:24.503Z,97902.73
2019-03-05T05:08:54.976Z,97904.83
2019-03-05T05:11:25.800Z,97904.00
2019-03-05T05:13:56.174Z,97915.36
2019-03-05T05:16:26.777Z,97913.49
2019-03-05T05:18:57.358Z,97905.03
2019-03-05T05:21:27.839Z,97902.25
2019-03-05T05:23:58.259Z,97903.73
2019-03-05T05:26:28.901Z,97905.70
2019-03-05T05:28:59.523Z,97905.31
2019-03-05T05:31:29.946Z,97900.20
2019-03-05T05:34:00.323Z,97901.56
2019-03-05T05:36:31.759Z,97897.88
2019-03-05T05:39:02.560Z,97901.64
2019-03-05T05:41:33.198Z,97904.61
2019-03-05T05:44:03.830Z,97904.81
2019-03-05T05:46:34.373Z,97908.99
2019-03-05T05:49:04.983Z,97909.81
2019-03-05T05:51:35.583Z,97905.36
2019-03-05T05:54:05.997Z,97912.20
2019-03-05T05:56:36.588Z,97904.83
2019-03-05T05:59:07.068Z,97909.09
2019-03-05T06:01:37.557Z,97899.34
2019-03-05T06:04:08.034Z,97909.92
2019-03-05T06:06:38.619Z,97910.57
2019-03-05T06:09:09.222Z,97917.41
2019-03-05T06:11:39.759Z,97910.20
2019-03-05T06:14:10.121Z,97908.91
2019-03-05T06:16:40.622Z,97913.71
2019-03-05T06:19:11.221Z,97913.98
2019-03-05T06:21:41.529Z,97914.59
2019-03-05T06:24:11.912Z,97924.26
2019-03-05T06:26:42.302Z,97930.67
2019-03-05T06:29:12.803Z,97929.78
2019-03-05T06:31:43.167Z,97928.63
2019-03-05T06:34:13.643Z,97926.83
2019-03-05T06:36:58.447Z,97938.88
2019-03-05T06:39:28.933Z,97938.53
2019-03-05T06:41:59.463Z,97935.81
2019-03-05T06:44:30.116Z,97947.75
2019-03-05T06:47:00.837Z,97941.77
2019-03-05T06:49:31.278Z,97948.01
2019-03-05T06:52:01.903Z,97944.81
2019-03-05T06:54:32.423Z,97938.38
2019-03-05T06:57:03.049Z,97950.58
2019-03-05T06:59:33.683Z,97937.72
2019-03-05T07:02:05.034Z,97954.89
2019-03-05T07:04:35.755Z,97944.88
2019-03-05T07:07:06.674Z,97951.73
2019-03-05T07:10:22.568Z,97942.69
2019-03-05T07:13:18.126Z,97942.39
2019-03-05T07:16:32.688Z,97957.09
2019-03-05T07:19:20.614Z,97954.45
2019-03-05T07:22:24.332Z,97966.48
2019-03-05T07:24:54.969Z,97982.48
2019-03-05T07:27:42.508Z,97978.12
2019-03-05T07:30:19.607Z,97966.17
2019-03-05T07:32:50.667Z,97981.98
2019-03-05T07:35:24.983Z,97973.87
2019-03-05T07:37:55.523Z,97995.16
2019-03-05T07:40:27.117Z,97984.16
2019-03-05T07:42:57.772Z,97984.45
2019-03-05T07:45:32.604Z,97986.70
2019-03-05T07:48:05.950Z,97996.49
2019-03-05T07:50:40.612Z,98008.38
2019-03-05T07:53:20.443Z,98015.62
2019-03-05T07:55:50.943Z,98001.59
2019-03-05T07:58:23.330Z,98018.80
2019-03-05T08:00:55.295Z,98043.78
2019-03-05T08:03:26.840Z,98052.61
2019-03-05T08:05:57.412Z,98045.09
2019-03-05T08:09:25.320Z,98050.94
2019-03-05T08:11:57.609Z,98051.98
2019-03-05T08:14:50.493Z,98050.53
2019-03-05T08:17:22.097Z,98049.64
2019-03-05T08:19:52.648Z,98036.19
2019-03-05T08:22:23.829Z,98045.64
2019-03-05T08:24:57.907Z,98043.58
2019-03-05T08:27:28.612Z,98050.69
2019-03-05T08:30:00.454Z,98044.84
2019-03-05T08:32:30.988Z,98046.70
2019-03-05T08:35:03.145Z,98042.83
2019-03-05T08:37:35.300Z,98050.06
2019-03-05T08:40:09.613Z,98052.61
2019-03-05T08:42:44.753Z,98055.98
2019-03-05T08:45:16.402Z,98053.14
2019-03-05T08:47:47.111Z,98054.97
2019-03-05T08:50:17.754Z,98056.59
2019-03-05T08:52:48.257Z,98060.59
2019-03-05T08:55:19.639Z,98066.52
2019-03-05T08:57:50.960Z,98068.48
2019-03-05T09:00:21.623Z,98076.82
2019-03-05T09:02:52.304Z,98088.79
2019-03-05T09:05:23.441Z,98080.50
2019-03-05T09:07:54.359Z,98092.80
2019-03-05T09:10:26.883Z,98088.86
2019-03-05T09:12:57.873Z,98084.14
2019-03-05T09:15:28.667Z,98085.83
2019-03-05T09:17:59.297Z,98089.16
2019-03-05T09:20:30.342Z,98085.53
2019-03-05T09:23:01.018Z,98112.48
2019-03-05T09:25:31.583Z,98101.02
2019-03-05T09:28:02.133Z,98112.69
2019-03-05T09:30:32.948Z,98103.09
2019-03-05T09:33:03.601Z,98093.80
2019-03-05T09:35:34.256Z,98102.77
2019-03-05T09:38:04.994Z,98103.86
2019-03-05T09:40:35.583Z,98093.91
2019-03-05T09:43:06.221Z,98100.50
2019-03-05T09:45:36.898Z,98099.75
2019-03-05T09:48:07.572Z,98095.92
2019-03-05T09:50:38.141Z,98104.63
2019-03-05T09:53:08.717Z,98098.06
2019-03-05T09:55:39.212Z,98111.22
2019-03-05T09:58:09.895Z,98100.44
2019-03-05T10:00:40.770Z,98111.80
2019-03-05T10:03:11.323Z,98109.48
2019-03-05T10:05:41.920Z,98120.05
2019-03-05T10:08:12.468Z,98115.56
2019-03-05T10:10:43.076Z,98123.22
2019-03-05T10:13:13.596Z,98133.70
2019-03-05T10:15:44.035Z,98135.98
2019-03-05T10:18:14.557Z,98135.05
2019-03-05T10:20:45.403Z,98137.21
2019-03-05T10:23:16.213Z,98120.47
2019-03-05T10:25:46.779Z,98142.67
2019-03-05T10:28:17.299Z,98150.45
2019-03-05T10:30:47.803Z,98143.94
2019-03-05T10:33:19.114Z,98143.38
2019-03-05T10:35:49.920Z,98135.98
2019-03-05T10:38:21.083Z,98149.66
2019-03-05T10:40:52.948Z,98140.69
2019-03-05T10:43:23.597Z,98146.88
2019-03-05T10:45:54.077Z,98133.98
2019-03-05T10:48:25.092Z,98151.70
2019-03-05T10:50:55.726Z,98153.59
2019-03-05T10:53:26.318Z,98136.77
2019-03-05T10:55:56.703Z,98159.91
2019-03-05T10:58:34.022Z,98158.33
2019-03-05T11:01:01.119Z,98130.03
2019-03-05T11:03:32.035Z,98159.40
2019-03-05T11:06:03.067Z,98161.98
2019-03-05T11:08:33.872Z,98152.20
2019-03-05T11:11:12.991Z,98147.41
2019-03-05T11:13:36.758Z,98168.73
2019-03-05T11:16:07.653Z,98161.69
2019-03-05T11:18:39.222Z,98165.03
2019-03-05T11:21:09.971Z,98163.04
2019-03-05T11:23:40.467Z,98144.84
2019-03-05T11:26:10.893Z,98154.27
2019-03-05T11:28:41.283Z,98135.39
2019-03-05T11:31:11.868Z,98149.85
2019-03-05T11:33:42.229Z,98174.05
2019-03-05T11:36:12.609Z,98166.21
2019-03-05T11:38:43.059Z,98180.93
2019-03-05T11:41:13.564Z,98157.67
2019-03-05T11:43:44.083Z,98178.20
2019-03-05T11:46:18.533Z,98164.95
2019-03-05T11:48:49.097Z,98180.55
2019-03-05T11:51:19.659Z,98171.39
2019-03-05T11:53:50.508Z,98192.67
2019-03-05T11:56:21.127Z,98198.80
2019-03-05T11:58:51.971Z,98193.67
2019-03-05T12:01:29.020Z,98190.03
2019-03-05T12:04:00.405Z,98186.20
2019-03-05T12:06:31.773Z,98182.72
2019-03-05T12:09:02.477Z,98189.11
2019-03-05T12:11:33.122Z,98193.11
2019-03-05T12:14:05.040Z,98204.24
2019-03-05T12:16:36.634Z,98191.69
2019-03-05T12:19:08.373Z,98205.24
2019-03-05T12:21:38.899Z,98199.38
2019-03-05T12:24:10.103Z,98196.28
2019-03-05T12:26:40.603Z,98195.06
2019-03-05T12:29:11.049Z,98188.19
2019-03-05T12:31:41.628Z,98183.04
2019-03-05T12:34:12.037Z,98182.21
2019-03-05T12:36:42.767Z,98185.24
2019-03-05T12:39:15.547Z,98175.19
2019-03-05T12:41:46.172Z,98177.38
2019-03-05T12:44:16.817Z,98172.88
2019-03-05T12:46:47.388Z,98173.58
2019-03-05T12:49:17.854Z,98171.91
2019-03-05T12:51:48.423Z,98175.86
2019-03-05T12:54:18.800Z,98181.59
2019-03-05T12:56:49.273Z,98173.50
2019-03-05T12:59:19.733Z,98170.08
2019-03-05T13:01:50.173Z,98176.45
2019-03-05T13:04:20.624Z,98179.09
2019-03-05T13:06:51.088Z,98161.58
2019-03-05T13:09:21.466Z,98178.44
2019-03-05T13:11:51.999Z,98178.08
2019-03-05T13:14:22.395Z,98181.14
2019-03-05T13:16:52.724Z,98166.16
2019-03-05T13:19:23.208Z,98176.73
2019-03-05T13:21:53.688Z,98184.55
2019-03-05T13:24:24.069Z,98181.77
2019-03-05T13:26:54.486Z,98182.15
2019-03-05T13:29:24.882Z,98178.27
2019-03-05T13:31:55.317Z,98177.20
2019-03-05T13:34:25.943Z,98169.72
2019-03-05T13:36:56.606Z,98166.09
2019-03-05T13:39:27.116Z,98177.74
2019-03-05T13:41:57.946Z,98187.39
2019-03-05T13:44:36.865Z,98189.63
2019-03-05T13:47:13.352Z,98178.84
2019-03-05T13:50:30.233Z,98189.84
2019-03-05T13:53:42.465Z,98181.98
2019-03-05T13:57:01.301Z,98180.34
2019-03-05T13:59:48.943Z,98191.12
2019-03-05T14:02:30.609Z,98169.07
2019-03-05T14:05:20.739Z,98174.32
2019-03-05T14:08:48.649Z,98177.37
2019-03-05T14:11:20.719Z,98164.55
2019-03-05T14:13:51.788Z,98184.08
2019-03-05T14:16:23.747Z,98175.34
2019-03-05T14:18:54.940Z,98194.73
2019-03-05T14:21:26.145Z,98207.40
2019-03-05T14:23:56.661Z,98199.53
2019-03-05T14:26:27.852Z,98196.88
2019-03-05T14:28:59.318Z,98209.27
2019-03-05T14:31:30.522Z,98204.38
2019-03-05T14:34:01.369Z,98206.67
2019-03-05T14:36:32.118Z,98227.23
2019-03-05T14:39:05.787Z,98226.90
2019-03-05T14:41:36.949Z,98281.34
2019-03-05T14:44:09.092Z,98294.67
2019-03-05T14:46:40.498Z,98324.55
2019-03-05T14:49:10.976Z,98341.38
2019-03-05T14:51:41.430Z,98349.98
2019-03-05T14:54:11.996Z,98336.73
2019-03-05T14:56:42.496Z,98348.98
2019-03-05T14:59:13.446Z,98364.55
2019-03-05T15:01:44.491Z,98373.39
2019-03-05T15:04:15.071Z,98367.76
2019-03-05T15:06:45.671Z,98363.44
2019-03-05T15:09:16.217Z,98370.31
2019-03-05T15:11:46.797Z,98362.34
2019-03-05T15:14:17.451Z,98357.62
2019-03-05T15:16:48.132Z,98353.16
2019-03-05T15:19:21.631Z,98341.27
2019-03-05T15:21:50.841Z,98339.31
2019-03-05T15:24:21.666Z,98346.19
2019-03-05T15:26:52.098Z,98344.43
2019-03-05T15:29:24.762Z,98336.17
2019-03-05T15:31:57.240Z,98332.14
2019-03-05T15:34:33.501Z,98334.50
2019-03-05T15:37:09.498Z,98341.29
2019-03-05T15:39:43.274Z,98346.89
2019-03-05T15:42:23.165Z,98343.05
2019-03-05T15:45:02.626Z,98333.80
2019-03-05T15:47:42.601Z,98329.29
2019-03-05T15:50:18.116Z,98335.98
2019-03-05T15:52:52.042Z,98338.63
2019-03-05T15:55:23.576Z,98336.74
2019-03-05T15:57:59.191Z,98337.15
2019-03-05T16:00:33.941Z,98341.47
2019-03-05T16:03:07.489Z,98339.90
2019-03-05T16:05:39.886Z,98336.64
2019-03-05T16:08:12.313Z,98342.09
2019-03-05T16:10:46.105Z,98334.48
2019-03-05T16:13:21.994Z,98344.52
2019-03-05T16:15:56.110Z,98348.17
2019-03-05T16:18:31.539Z,98343.73
2019-03-05T16:21:06.775Z,98346.38
2019-03-05T16:23:38.993Z,98357.62
2019-03-05T16:26:15.611Z,98358.41
2019-03-05T16:28:46.605Z,98364.30
2019-03-05T16:31:35.090Z,98371.69
2019-03-05T16:34:20.302Z,98382.50
2019-03-05T16:37:05.665Z,98383.97
2019-03-05T16:39:55.480Z,98386.72
2019-03-05T16:42:34.492Z,98389.45
2019-03-05T16:45:25.563Z,98396.31
2019-03-05T16:48:14.914Z,98402.50
2019-03-05T16:50:57.572Z,98410.45
2019-03-05T16:53:48.237Z,98425.20
2019-03-05T16:56:38.865Z,98426.72
2019-03-05T16:59:31.201Z,98432.03
2019-03-05T17:02:27.417Z,98427.40
2019-03-05T17:05:15.460Z,98426.45
2019-03-05T17:07:56.042Z,98437.50
2019-03-05T17:10:47.819Z,98433.34
2019-03-05T17:13:20.947Z,98440.83
2019-03-05T17:15:55.292Z,98445.28
2019-03-05T17:18:28.943Z,98444.80
2019-03-05T17:21:04.098Z,98450.50
2019-03-05T17:23:37.883Z,98454.44
2019-03-05T17:26:08.802Z,98461.92
2019-03-05T17:28:42.131Z,98469.14
2019-03-05T17:31:15.400Z,98456.13
2019-03-05T17:33:52.391Z,98462.45
2019-03-05T17:36:29.666Z,98465.80
2019-03-05T17:39:01.253Z,98472.75
2019-03-05T17:41:33.158Z,98476.39
2019-03-05T17:44:07.577Z,98469.48
2019-03-05T17:46:39.772Z,98481.30
2019-03-05T17:49:11.896Z,98475.11
2019-03-05T17:51:45.024Z,98470.55
2019-03-05T17:54:18.238Z,98467.06
2019-03-05T17:56:49.317Z,98467.25
2019-03-05T17:59:21.394Z,98474.43
2019-03-05T18:01:52.433Z,98478.92
2019-03-05T18:04:24.447Z,98472.81
2019-03-05T18:07:02.171Z,98479.55
2019-03-05T18:09:32.846Z,98490.36
2019-03-05T18:12:07.925Z,98491.02
2019-03-05T18:14:39.013Z,98496.19
2019-03-05T18:17:09.933Z,98494.35
2019-03-05T18:19:40.556Z,98497.22
2019-03-05T18:22:11.588Z,98505.91
2019-03-05T18:24:43.291Z,98500.37
2019-03-05T18:27:21.662Z,98508.20
2019-03-05T18:29:53.253Z,98514.82
2019-03-05T18:32:25.034Z,98512.27
2019-03-05T18:34:55.861Z,98515.63
2019-03-05T18:37:31.073Z,98521.02
2019-03-05T18:40:03.073Z,98518.77
2019-03-05T18:42:33.868Z,98526.80
2019-03-05T18:45:06.893Z,98527.07
2019-03-05T18:47:37.794Z,98525.96
2019-03-05T18:50:18.843Z,98538.73
2019-03-05T18:52:54.548Z,98535.95
2019-03-05T18:55:26.036Z,98542.23
2019-03-05T18:57:57.886Z,98550.05
2019-03-05T19:00:29.912Z,98555.42
2019-03-05T19:03:08.497Z,98553.19
2019-03-05T19:05:40.662Z,98564.84
2019-03-05T19:08:14.413Z,98567.02
2019-03-05T19:10:47.903Z,98572.02
2019-03-05T19:13:21.203Z,98572.91
2019-03-05T19:15:55.393Z,98573.14
2019-03-05T19:18:26.577Z,98578.13
2019-03-05T19:20:57.358Z,98581.58
2019-03-05T19:23:37.144Z,98578.77
2019-03-05T19:26:13.205Z,98583.72
2019-03-05T19:28:48.638Z,98587.92
2019-03-05T19:31:20.839Z,98586.64
2019-03-05T19:33:55.089Z,98586.64
2019-03-05T19:36:30.258Z,98592.80
2019-03-05T19:39:04.856Z,98598.77
2019-03-05T19:41:39.104Z,98601.37
2019-03-05T19:44:17.357Z,98606.59
2019-03-05T19:46:52.392Z,98610.83
2019-03-05T19:49:28.704Z,98604.86
2019-03-05T19:52:02.500Z,98612.52
2019-03-05T19:54:40.013Z,98615.60
2019-03-05T19:57:12.176Z,98621.87
2019-03-05T19:59:44.885Z,98617.17
2019-03-05T20:02:22.949Z,98629.37
2019-03-05T20:04:54.488Z,98633.98
2019-03-05T20:07:27.638Z,98639.30
2019-03-05T20:10:11.073Z,98644.28
2019-03-05T20:12:57.384Z,98649.27
2019-03-05T20:15:29.592Z,98654.60
2019-03-05T20:18:09.614Z,98655.12
2019-03-05T20:20:44.819Z,98662.89
2019-03-05T20:23:22.582Z,98668.28
2019-03-05T20:25:54.759Z,98670.69
2019-03-05T20:28:27.808Z,98675.06
2019-03-05T20:31:03.821Z,98674.80
2019-03-05T20:33:35.214Z,98682.45
2019-03-05T20:36:07.143Z,98683.73
2019-03-05T20:38:42.514Z,98694.16
2019-03-05T20:41:16.764Z,98692.75
2019-03-05T20:43:53.827Z,98690.34
2019-03-05T20:46:30.071Z,98702.08
2019-03-05T20:49:01.494Z,98715.61
2019-03-05T20:51:37.323Z,98719.84
2019-03-05T20:54:08.366Z,98726.34
2019-03-05T20:56:42.494Z,98732.92
2019-03-05T20:59:18.832Z,98729.92
2019-03-05T21:01:51.509Z,98730.74
2019-03-05T21:04:26.279Z,98736.34
2019-03-05T21:07:02.917Z,98731.47
2019-03-05T21:09:42.933Z,98735.83
2019-03-05T21:12:15.257Z,98737.70
2019-03-05T21:14:47.303Z,98744.98
2019-03-05T21:17:21.698Z,98742.52
2019-03-05T21:19:54.607Z,98746.41
2019-03-05T21:22:28.359Z,98747.91
2019-03-05T21:25:03.358Z,98759.33
2019-03-05T21:27:35.775Z,98761.84
2019-03-05T21:30:17.743Z,98756.66
2019-03-05T21:32:54.287Z,98757.38
2019-03-05T21:35:28.062Z,98764.16
2019-03-05T21:38:03.283Z,98765.73
2019-03-05T21:40:35.650Z,98757.32
2019-03-05T21:43:06.563Z,98764.63
2019-03-05T21:45:38.697Z,98780.71
2019-03-05T21:48:10.620Z,98775.48
2019-03-05T21:50:42.297Z,98775.59
2019-03-05T21:53:13.137Z,98776.03
2019-03-05T21:55:44.221Z,98775.38
2019-03-05T21:58:15.510Z,98783.95
2019-03-05T22:00:47.219Z,98785.99
2019-03-05T22:03:18.382Z,98789.72
2019-03-05T22:05:49.303Z,98807.04
2019-03-05T22:08:20.741Z,98808.36
2019-03-05T22:10:51.606Z,98811.49
2019-03-05T22:13:22.188Z,98816.87
2019-03-05T22:15:52.837Z,98817.77
2019-03-05T22:18:23.358Z,98827.81
2019-03-05T22:20:53.929Z,98826.67
2019-03-05T22:23:24.539Z,98835.15
2019-03-05T22:25:55.155Z,98840.94
2019-03-05T22:28:25.798Z,98833.27
2019-03-05T22:30:56.669Z,98851.80
2019-03-05T22:33:27.119Z,98849.06
2019-03-05T22:35:57.728Z,98861.20
2019-03-05T22:38:28.367Z,98862.79
2019-03-05T22:40:59.132Z,98869.09
2019-03-05T22:43:29.667Z,98862.48
2019-03-05T22:46:00.991Z,98868.52
2019-03-05T22:48:31.753Z,98878.77
2019-03-05T22:51:02.456Z,98881.41
2019-03-05T22:53:33.072Z,98880.91
2019-03-05T22:56:03.620Z,98883.38
2019-03-05T22:58:34.287Z,98884.27
2019-03-05T23:01:16.419Z,98887.81
2019-03-05T23:03:59.584Z,98893.16
2019-03-05T23:06:30.473Z,98897.11
2019-03-05T23:09:01.257Z,98908.09
2019-03-05T23:11:32.549Z,98906.62
2019-03-05T23:14:03.194Z,98914.00
2019-03-05T23:16:33.819Z,98916.00
2019-03-05T23:19:04.591Z,98919.02
2019-03-05T23:21:35.329Z,98914.02
2019-03-05T23:24:06.133Z,98919.39
2019-03-05T23:26:37.290Z,98919.80
2019-03-05T23:29:09.970Z,98920.06
2019-03-05T23:31:40.828Z,98930.70
2019-03-05T23:34:18.089Z,98927.13
2019-03-05T23:36:43.909Z,98927.13
2019-03-05T23:39:18.880Z,98929.07
2019-03-05T23:41:49.465Z,98945.01
2019-03-05T23:44:20.162Z,98940.80
2019-03-05T23:46:50.853Z,98945.04
2019-03-05T23:49:21.318Z,98942.27
2019-03-05T23:51:51.889Z,98943.78
2019-03-05T23:54:22.571Z,98948.25
2019-03-05T23:56:53.138Z,98957.77
2019-03-05T23:59:23.734Z,98960.30
